sensor_id;sensor_type;location;lat;lon;timestamp;pressure;altitude;pressure_sealevel;temperature;humidity
7337;BME280;54510;42.016;23.098;2023-02-13T00:02:18;-21184.47;;;1.83;71.77
7337;BME280;54510;42.016;23.098;2023-02-13T00:04:44;-21187.13;;;1.92;71.74
7337;BME280;54510;42.016;23.098;2023-02-13T00:07:10;-21184.03;;;1.81;71.38
7337;BME280;54510;42.016;23.098;2023-02-13T00:09:38;-21185.88;;;1.88;71.69
7337;BME280;54510;42.016;23.098;2023-02-13T00:12:06;-21183.34;;;1.79;71.16
7337;BME280;54510;42.016;23.098;2023-02-13T00:14:35;-21173.13;;;1.42;71.92
7337;BME280;54510;42.016;23.098;2023-02-13T00:17:02;-21180.41;;;1.68;72.02
7337;BME280;54510;42.016;23.098;2023-02-13T00:19:27;-21180.41;;;1.68;72.10
7337;BME280;54510;42.016;23.098;2023-02-13T00:21:53;-21182.22;;;1.75;71.57
7337;BME280;54510;42.016;23.098;2023-02-13T00:24:18;-21180.41;;;1.68;71.36
7337;BME280;54510;42.016;23.098;2023-02-13T00:26:43;-21180.41;;;1.68;71.45
7337;BME280;54510;42.016;23.098;2023-02-13T00:29:09;-21179.28;;;1.64;71.57
7337;BME280;54510;42.016;23.098;2023-02-13T00:31:34;-21179.16;;;1.64;71.33
7337;BME280;54510;42.016;23.098;2023-02-13T00:34:00;-21179.84;;;1.66;71.05
7337;BME280;54510;42.016;23.098;2023-02-13T00:36:25;-21174.38;;;1.46;71.81
7337;BME280;54510;42.016;23.098;2023-02-13T00:38:52;-21172.28;;;1.39;72.15
7337;BME280;54510;42.016;23.098;2023-02-13T00:41:18;-21174.38;;;1.46;71.86
7337;BME280;54510;42.016;23.098;2023-02-13T00:43:45;-21172.13;;;1.38;72.14
7337;BME280;54510;42.016;23.098;2023-02-13T00:46:11;-21169.75;;;1.30;71.88
7337;BME280;54510;42.016;23.098;2023-02-13T00:48:36;-21171.44;;;1.36;72.08
7337;BME280;54510;42.016;23.098;2023-02-13T00:51:03;-21174.22;;;1.46;71.47
7337;BME280;54510;42.016;23.098;2023-02-13T00:53:29;-21175.91;;;1.52;71.44
7337;BME280;54510;42.016;23.098;2023-02-13T00:55:55;-21178.31;;;1.61;71.56
7337;BME280;54510;42.016;23.098;2023-02-13T00:58:21;-21174.50;;;1.47;71.48
7337;BME280;54510;42.016;23.098;2023-02-13T01:00:47;-21178.31;;;1.61;71.66
7337;BME280;54510;42.016;23.098;2023-02-13T01:03:14;-21179.28;;;1.64;71.22
7337;BME280;54510;42.016;23.098;2023-02-13T01:05:39;-21176.34;;;1.53;71.45
7337;BME280;54510;42.016;23.098;2023-02-13T01:08:05;-21171.84;;;1.37;72.21
7337;BME280;54510;42.016;23.098;2023-02-13T01:10:31;-21169.59;;;1.29;72.31
7337;BME280;54510;42.016;23.098;2023-02-13T01:12:56;-21170.72;;;1.33;72.56
7337;BME280;54510;42.016;23.098;2023-02-13T01:15:22;-21170.88;;;1.34;72.28
7337;BME280;54510;42.016;23.098;2023-02-13T01:17:47;-21167.38;;;1.21;72.31
7337;BME280;54510;42.016;23.098;2023-02-13T01:20:13;-21169.47;;;1.29;72.60
7337;BME280;54510;42.016;23.098;2023-02-13T01:22:39;-21166.38;;;1.17;72.59
7337;BME280;54510;42.016;23.098;2023-02-13T01:25:05;-21168.91;;;1.27;72.38
7337;BME280;54510;42.016;23.098;2023-02-13T01:27:31;-21172.28;;;1.39;72.19
7337;BME280;54510;42.016;23.098;2023-02-13T01:29:57;-21167.91;;;1.23;72.08
7337;BME280;54510;42.016;23.098;2023-02-13T01:32:23;-21171.16;;;1.35;71.90
7337;BME280;54510;42.016;23.098;2023-02-13T01:34:49;-21172.56;;;1.40;71.88
7337;BME280;54510;42.016;23.098;2023-02-13T01:37:15;-21166.09;;;1.16;71.52
7337;BME280;54510;42.016;23.098;2023-02-13T01:39:41;-21167.22;;;1.21;72.07
7337;BME280;54510;42.016;23.098;2023-02-13T01:42:16;-21163.44;;;1.07;72.36
7337;BME280;54510;42.016;23.098;2023-02-13T01:47:16;-21157.41;;;0.85;72.56
7337;BME280;54510;42.016;23.098;2023-02-13T01:49:44;-21161.47;;;1.00;72.44
7337;BME280;54510;42.016;23.098;2023-02-13T01:52:11;-21160.63;;;0.97;71.58
7337;BME280;54510;42.016;23.098;2023-02-13T01:54:38;-21161.06;;;0.98;71.63
7337;BME280;54510;42.016;23.098;2023-02-13T01:57:12;-21154.47;;;0.74;71.73
7337;BME280;54510;42.016;23.098;2023-02-13T01:59:49;-21156.69;;;0.83;72.12
7337;BME280;54510;42.016;23.098;2023-02-13T02:02:17;-21152.91;;;0.69;71.73
7337;BME280;54510;42.016;23.098;2023-02-13T02:04:45;-21153.19;;;0.70;71.38
7337;BME280;54510;42.016;23.098;2023-02-13T02:07:23;-21155.72;;;0.79;72.17
7337;BME280;54510;42.016;23.098;2023-02-13T02:09:53;-21156.84;;;0.83;72.15
7337;BME280;54510;42.016;23.098;2023-02-13T02:12:35;-21161.06;;;0.98;71.60
7337;BME280;54510;42.016;23.098;2023-02-13T02:15:03;-21157.97;;;0.87;71.48
7337;BME280;54510;42.016;23.098;2023-02-13T02:17:29;-21157.97;;;0.87;72.18
7337;BME280;54510;42.016;23.098;2023-02-13T02:25:49;-21155.16;;;0.77;72.66
7337;BME280;54510;42.016;23.098;2023-02-13T02:28:34;-21151.22;;;0.63;72.39
7337;BME280;54510;42.016;23.098;2023-02-13T02:37:40;-21151.50;;;0.64;72.71
7337;BME280;54510;42.016;23.098;2023-02-13T02:45:27;-21143.94;;;0.36;72.17
7337;BME280;54510;42.016;23.098;2023-02-13T02:48:08;-21141.13;;;0.26;72.76
7337;BME280;54510;42.016;23.098;2023-02-13T02:51:02;-21142.09;;;0.30;73.26
7337;BME280;54510;42.016;23.098;2023-02-13T02:56:53;-21146.47;;;0.46;72.46
7337;BME280;54510;42.016;23.098;2023-02-13T02:59:22;-21142.25;;;0.30;72.40
7337;BME280;54510;42.016;23.098;2023-02-13T03:02:09;-21145.59;;;0.43;72.49
7337;BME280;54510;42.016;23.098;2023-02-13T03:04:57;-21141.41;;;0.27;72.38
7337;BME280;54510;42.016;23.098;2023-02-13T03:07:43;-21136.91;;;0.11;73.33
7337;BME280;54510;42.016;23.098;2023-02-13T03:10:12;-21136.91;;;0.11;73.34
7337;BME280;54510;42.016;23.098;2023-02-13T03:13:17;-21138.31;;;0.16;73.63
7337;BME280;54510;42.016;23.098;2023-02-13T03:15:56;-21132.13;;;-0.06;73.27
7337;BME280;54510;42.016;23.098;2023-02-13T03:18:45;-21127.78;;;-0.22;73.66
7337;BME280;54510;42.016;23.098;2023-02-13T03:27:51;-21133.81;;;0.00;73.28
7337;BME280;54510;42.016;23.098;2023-02-13T03:31:16;-21132.28;;;-0.06;73.08
7337;BME280;54510;42.016;23.098;2023-02-13T03:33:56;-21132.69;;;-0.04;73.56
7337;BME280;54510;42.016;23.098;2023-02-13T03:44:52;-21130.59;;;-0.12;73.54
7337;BME280;54510;42.016;23.098;2023-02-13T03:47:41;-21132.13;;;-0.06;73.46
7337;BME280;54510;42.016;23.098;2023-02-13T03:50:09;-21132.84;;;-0.04;73.55
7337;BME280;54510;42.016;23.098;2023-02-13T03:55:37;-21129.59;;;-0.15;73.98
7337;BME280;54510;42.016;23.098;2023-02-13T03:58:27;-21127.91;;;-0.21;74.31
7337;BME280;54510;42.016;23.098;2023-02-13T04:01:16;-21128.06;;;-0.21;74.49
7337;BME280;54510;42.016;23.098;2023-02-13T04:09:04;-21133.69;;;-0.01;73.95
7337;BME280;54510;42.016;23.098;2023-02-13T04:11:52;-21135.50;;;0.06;73.35
7337;BME280;54510;42.016;23.098;2023-02-13T04:14:31;-21134.09;;;0.01;73.38
7337;BME280;54510;42.016;23.098;2023-02-13T04:17:04;-21131.56;;;-0.08;72.81
7337;BME280;54510;42.016;23.098;2023-02-13T04:19:31;-21127.50;;;-0.23;73.59
7337;BME280;54510;42.016;23.098;2023-02-13T04:21:58;-21126.78;;;-0.25;74.09
7337;BME280;54510;42.016;23.098;2023-02-13T04:24:25;-21129.59;;;-0.15;74.03
7337;BME280;54510;42.016;23.098;2023-02-13T04:26:51;-21125.97;;;-0.28;74.16
7337;BME280;54510;42.016;23.098;2023-02-13T04:29:18;-21131.00;;;-0.10;73.74
7337;BME280;54510;42.016;23.098;2023-02-13T04:31:44;-21128.34;;;-0.20;73.40
7337;BME280;54510;42.016;23.098;2023-02-13T04:34:10;-21128.19;;;-0.20;73.58
7337;BME280;54510;42.016;23.098;2023-02-13T04:36:35;-21122.31;;;-0.42;73.51
7337;BME280;54510;42.016;23.098;2023-02-13T04:39:00;-21122.56;;;-0.41;73.75
7337;BME280;54510;42.016;23.098;2023-02-13T04:41:26;-21121.47;;;-0.45;73.87
7337;BME280;54510;42.016;23.098;2023-02-13T04:43:51;-21122.72;;;-0.40;74.05
7337;BME280;54510;42.016;23.098;2023-02-13T04:46:17;-21128.19;;;-0.20;73.76
7337;BME280;54510;42.016;23.098;2023-02-13T04:48:43;-21129.19;;;-0.17;73.32
7337;BME280;54510;42.016;23.098;2023-02-13T04:51:08;-21130.03;;;-0.14;73.25
7337;BME280;54510;42.016;23.098;2023-02-13T04:53:34;-21129.47;;;-0.16;72.81
7337;BME280;54510;42.016;23.098;2023-02-13T04:55:59;-21130.16;;;-0.13;72.64
7337;BME280;54510;42.016;23.098;2023-02-13T04:58:24;-21131.56;;;-0.08;72.60
7337;BME280;54510;42.016;23.098;2023-02-13T05:00:50;-21126.94;;;-0.25;72.50
7337;BME280;54510;42.016;23.098;2023-02-13T05:03:15;-21123.72;;;-0.36;72.79
7337;BME280;54510;42.016;23.098;2023-02-13T05:05:41;-21119.22;;;-0.53;73.33
7337;BME280;54510;42.016;23.098;2023-02-13T05:08:07;-21120.63;;;-0.48;73.92
7337;BME280;54510;42.016;23.098;2023-02-13T05:10:33;-21122.44;;;-0.41;73.52
7337;BME280;54510;42.016;23.098;2023-02-13T05:12:59;-21123.56;;;-0.37;73.11
7337;BME280;54510;42.016;23.098;2023-02-13T05:15:24;-21124.69;;;-0.33;73.20
7337;BME280;54510;42.016;23.098;2023-02-13T05:17:50;-21125.66;;;-0.29;72.70
7337;BME280;54510;42.016;23.098;2023-02-13T05:20:16;-21124.13;;;-0.35;72.48
7337;BME280;54510;42.016;23.098;2023-02-13T05:22:49;-21119.63;;;-0.51;72.25
7337;BME280;54510;42.016;23.098;2023-02-13T05:25:35;-21113.16;;;-0.74;73.13
7337;BME280;54510;42.016;23.098;2023-02-13T05:28:01;-21114.56;;;-0.69;73.75
7337;BME280;54510;42.016;23.098;2023-02-13T05:30:26;-21119.50;;;-0.52;73.44
7337;BME280;54510;42.016;23.098;2023-02-13T05:32:52;-21121.88;;;-0.43;73.20
7337;BME280;54510;42.016;23.098;2023-02-13T05:35:22;-21123.28;;;-0.38;72.64
7337;BME280;54510;42.016;23.098;2023-02-13T05:37:47;-21120.63;;;-0.48;72.87
7337;BME280;54510;42.016;23.098;2023-02-13T05:40:13;-21119.50;;;-0.52;72.88
7337;BME280;54510;42.016;23.098;2023-02-13T05:42:40;-21119.50;;;-0.52;72.95
7337;BME280;54510;42.016;23.098;2023-02-13T05:45:06;-21115.84;;;-0.65;73.61
7337;BME280;54510;42.016;23.098;2023-02-13T05:47:32;-21115.56;;;-0.66;74.38
7337;BME280;54510;42.016;23.098;2023-02-13T05:49:57;-21120.19;;;-0.49;73.52
7337;BME280;54510;42.016;23.098;2023-02-13T05:52:23;-21122.03;;;-0.43;73.36
7337;BME280;54510;42.016;23.098;2023-02-13T05:54:48;-21121.19;;;-0.46;73.38
7337;BME280;54510;42.016;23.098;2023-02-13T05:57:13;-21120.06;;;-0.50;73.94
7337;BME280;54510;42.016;23.098;2023-02-13T05:59:39;-21122.03;;;-0.43;74.39
7337;BME280;54510;42.016;23.098;2023-02-13T06:02:04;-21123.44;;;-0.37;73.72
7337;BME280;54510;42.016;23.098;2023-02-13T06:04:30;-21122.16;;;-0.42;74.05
7337;BME280;54510;42.016;23.098;2023-02-13T06:06:55;-21127.34;;;-0.23;73.46
7337;BME280;54510;42.016;23.098;2023-02-13T06:09:20;-21129.88;;;-0.14;72.37
7337;BME280;54510;42.016;23.098;2023-02-13T06:11:46;-21125.81;;;-0.29;72.46
7337;BME280;54510;42.016;23.098;2023-02-13T06:14:12;-21129.03;;;-0.17;72.42
7337;BME280;54510;42.016;23.098;2023-02-13T06:16:39;-21128.34;;;-0.20;72.51
7337;BME280;54510;42.016;23.098;2023-02-13T06:19:04;-21127.50;;;-0.23;72.91
7337;BME280;54510;42.016;23.098;2023-02-13T06:21:30;-21130.72;;;-0.11;73.33
7337;BME280;54510;42.016;23.098;2023-02-13T06:23:57;-21131.28;;;-0.09;72.68
7337;BME280;54510;42.016;23.098;2023-02-13T06:26:23;-21132.69;;;-0.04;72.33
7337;BME280;54510;42.016;23.098;2023-02-13T06:28:48;-21133.81;;;0.00;72.02
7337;BME280;54510;42.016;23.098;2023-02-13T06:31:14;-21132.69;;;-0.04;71.64
7337;BME280;54510;42.016;23.098;2023-02-13T06:33:39;-21131.84;;;-0.07;71.54
7337;BME280;54510;42.016;23.098;2023-02-13T06:36:05;-21127.91;;;-0.21;71.68
7337;BME280;54510;42.016;23.098;2023-02-13T06:38:30;-21126.09;;;-0.28;71.60
7337;BME280;54510;42.016;23.098;2023-02-13T06:40:59;-21128.34;;;-0.20;71.60
7337;BME280;54510;42.016;23.098;2023-02-13T06:43:26;-21131.84;;;-0.07;71.11
7337;BME280;54510;42.016;23.098;2023-02-13T06:45:52;-21130.72;;;-0.11;71.13
7337;BME280;54510;42.016;23.098;2023-02-13T06:48:18;-21130.88;;;-0.11;71.69
7337;BME280;54510;42.016;23.098;2023-02-13T06:50:43;-21136.91;;;0.11;71.63
7337;BME280;54510;42.016;23.098;2023-02-13T06:53:09;-21138.16;;;0.16;70.73
7337;BME280;54510;42.016;23.098;2023-02-13T06:55:35;-21139.00;;;0.19;71.02
7337;BME280;54510;42.016;23.098;2023-02-13T06:58:03;-21142.81;;;0.32;70.53
7337;BME280;54510;42.016;23.098;2023-02-13T07:00:28;-21144.63;;;0.39;70.12
7337;BME280;54510;42.016;23.098;2023-02-13T07:02:54;-21146.03;;;0.44;70.06
7337;BME280;54510;42.016;23.098;2023-02-13T07:05:25;-21153.75;;;0.72;70.07
7337;BME280;54510;42.016;23.098;2023-02-13T07:07:50;-21156.84;;;0.83;69.58
7337;BME280;54510;42.016;23.098;2023-02-13T07:10:16;-21154.31;;;0.74;69.87
7337;BME280;54510;42.016;23.098;2023-02-13T07:12:41;-21157.97;;;0.87;69.69
7337;BME280;54510;42.016;23.098;2023-02-13T07:15:07;-21160.06;;;0.95;68.82
7337;BME280;54510;42.016;23.098;2023-02-13T07:17:33;-21160.47;;;0.96;69.55
7337;BME280;54510;42.016;23.098;2023-02-13T07:19:58;-21162.19;;;1.02;69.52
7337;BME280;54510;42.016;23.098;2023-02-13T07:22:24;-21166.09;;;1.16;69.31
7337;BME280;54510;42.016;23.098;2023-02-13T07:24:49;-21169.59;;;1.29;68.56
7337;BME280;54510;42.016;23.098;2023-02-13T07:27:15;-21165.97;;;1.16;69.13
7337;BME280;54510;42.016;23.098;2023-02-13T07:29:40;-21172.00;;;1.38;69.07
7337;BME280;54510;42.016;23.098;2023-02-13T07:32:05;-21173.81;;;1.44;68.72
7337;BME280;54510;42.016;23.098;2023-02-13T07:34:32;-21176.91;;;1.55;68.25
7337;BME280;54510;42.016;23.098;2023-02-13T07:36:57;-21177.88;;;1.59;68.40
7337;BME280;54510;42.016;23.098;2023-02-13T07:39:22;-21179.97;;;1.67;68.10
7337;BME280;54510;42.016;23.098;2023-02-13T07:41:48;-21181.53;;;1.72;67.70
7337;BME280;54510;42.016;23.098;2023-02-13T07:44:13;-21185.31;;;1.86;67.76
7337;BME280;54510;42.016;23.098;2023-02-13T07:46:39;-21183.34;;;1.79;67.30
7337;BME280;54510;42.016;23.098;2023-02-13T07:49:04;-21186.28;;;1.89;67.53
7337;BME280;54510;42.016;23.098;2023-02-13T07:51:29;-21191.34;;;2.08;67.15
7337;BME280;54510;42.016;23.098;2023-02-13T07:53:55;-21195.81;;;2.24;67.03
7337;BME280;54510;42.016;23.098;2023-02-13T07:56:20;-21196.53;;;2.26;66.95
7337;BME280;54510;42.016;23.098;2023-02-13T07:58:46;-21201.44;;;2.44;66.42
7337;BME280;54510;42.016;23.098;2023-02-13T08:01:13;-21203.66;;;2.52;66.68
7337;BME280;54510;42.016;23.098;2023-02-13T08:03:39;-21205.50;;;2.59;65.97
7337;BME280;54510;42.016;23.098;2023-02-13T08:06:06;-21206.88;;;2.64;65.88
7337;BME280;54510;42.016;23.098;2023-02-13T08:08:32;-21208.56;;;2.70;66.03
7337;BME280;54510;42.016;23.098;2023-02-13T08:11:03;-21213.19;;;2.87;65.73
7337;BME280;54510;42.016;23.098;2023-02-13T08:13:48;-21212.91;;;2.86;66.00
7337;BME280;54510;42.016;23.098;2023-02-13T08:16:13;-21213.88;;;2.89;65.86
7337;BME280;54510;42.016;23.098;2023-02-13T08:18:39;-21217.94;;;3.04;65.97
7337;BME280;54510;42.016;23.098;2023-02-13T08:21:04;-21219.34;;;3.09;65.73
7337;BME280;54510;42.016;23.098;2023-02-13T08:23:30;-21221.44;;;3.16;65.42
7337;BME280;54510;42.016;23.098;2023-02-13T08:25:59;-21222.16;;;3.19;65.61
7337;BME280;54510;42.016;23.098;2023-02-13T08:28:25;-21224.81;;;3.29;65.54
7337;BME280;54510;42.016;23.098;2023-02-13T08:30:50;-21227.59;;;3.39;65.67
7337;BME280;54510;42.016;23.098;2023-02-13T08:33:15;-21231.25;;;3.52;65.09
7337;BME280;54510;42.016;23.098;2023-02-13T08:35:41;-21232.09;;;3.55;64.69
7337;BME280;54510;42.016;23.098;2023-02-13T08:38:06;-21233.06;;;3.58;65.06
7337;BME280;54510;42.016;23.098;2023-02-13T08:40:32;-21237.53;;;3.75;64.61
7337;BME280;54510;42.016;23.098;2023-02-13T08:43:01;-21240.63;;;3.86;63.97
7337;BME280;54510;42.016;23.098;2023-02-13T08:45:27;-21244.13;;;3.98;64.15
7337;BME280;54510;42.016;23.098;2023-02-13T08:47:55;-21245.94;;;4.05;63.68
7337;BME280;54510;42.016;23.098;2023-02-13T08:50:21;-21249.16;;;4.17;63.53
7337;BME280;54510;42.016;23.098;2023-02-13T08:52:46;-21252.09;;;4.27;63.25
7337;BME280;54510;42.016;23.098;2023-02-13T08:55:12;-21256.41;;;4.43;62.60
7337;BME280;54510;42.016;23.098;2023-02-13T08:57:37;-21253.63;;;4.33;62.91
7337;BME280;54510;42.016;23.098;2023-02-13T09:00:03;-21257.13;;;4.46;62.58
7337;BME280;54510;42.016;23.098;2023-02-13T09:02:29;-21257.69;;;4.48;62.20
7337;BME280;54510;42.016;23.098;2023-02-13T09:04:54;-21260.34;;;4.57;62.57
7337;BME280;54510;42.016;23.098;2023-02-13T09:07:19;-21263.97;;;4.70;61.95
7337;BME280;54510;42.016;23.098;2023-02-13T09:09:45;-21262.16;;;4.64;62.66
7337;BME280;54510;42.016;23.098;2023-02-13T09:12:10;-21262.00;;;4.63;62.48
7337;BME280;54510;42.016;23.098;2023-02-13T09:14:37;-21267.31;;;4.83;61.72
7337;BME280;54510;42.016;23.098;2023-02-13T09:17:04;-21268.84;;;4.88;61.32
7337;BME280;54510;42.016;23.098;2023-02-13T09:19:29;-21274.31;;;5.08;61.25
7337;BME280;54510;42.016;23.098;2023-02-13T09:21:55;-21277.78;;;5.21;60.82
7337;BME280;54510;42.016;23.098;2023-02-13T09:24:20;-21276.81;;;5.17;60.50
7337;BME280;54510;42.016;23.098;2023-02-13T09:26:46;-21273.59;;;5.05;61.46
7337;BME280;54510;42.016;23.098;2023-02-13T09:29:11;-21272.34;;;5.01;61.49
7337;BME280;54510;42.016;23.098;2023-02-13T09:31:36;-21266.06;;;4.78;62.05
7337;BME280;54510;42.016;23.098;2023-02-13T09:34:02;-21275.97;;;5.14;61.09
7337;BME280;54510;42.016;23.098;2023-02-13T09:36:27;-21276.81;;;5.17;60.84
7337;BME280;54510;42.016;23.098;2023-02-13T09:38:54;-21283.09;;;5.40;60.32
7337;BME280;54510;42.016;23.098;2023-02-13T09:41:30;-21286.19;;;5.51;59.92
7337;BME280;54510;42.016;23.098;2023-02-13T09:46:30;-21285.91;;;5.50;60.16
7337;BME280;54510;42.016;23.098;2023-02-13T09:49:00;-21286.19;;;5.51;59.82
7337;BME280;54510;42.016;23.098;2023-02-13T09:51:29;-21288.97;;;5.61;59.54
7337;BME280;54510;42.016;23.098;2023-02-13T09:54:03;-21288.81;;;5.61;59.39
7337;BME280;54510;42.016;23.098;2023-02-13T10:02:07;-21291.47;;;5.70;58.99
7337;BME280;54510;42.016;23.098;2023-02-13T10:04:51;-21292.59;;;5.74;58.70
7337;BME280;54510;42.016;23.098;2023-02-13T10:07:46;-21292.59;;;5.74;59.50
7337;BME280;54510;42.016;23.098;2023-02-13T10:13:10;-21301.53;;;6.07;58.89
7337;BME280;54510;42.016;23.098;2023-02-13T10:15:51;-21301.41;;;6.06;59.14
7337;BME280;54510;42.016;23.098;2023-02-13T10:18:24;-21302.38;;;6.10;58.57
7337;BME280;54510;42.016;23.098;2023-02-13T10:20:58;-21309.75;;;6.37;57.48
7337;BME280;54510;42.016;23.098;2023-02-13T10:26:10;-21315.75;;;6.58;57.63
7337;BME280;54510;42.016;23.098;2023-02-13T10:28:57;-21319.38;;;6.71;56.93
7337;BME280;54510;42.016;23.098;2023-02-13T10:31:45;-21317.72;;;6.65;56.89
7337;BME280;54510;42.016;23.098;2023-02-13T10:34:16;-21313.25;;;6.49;57.28
7337;BME280;54510;42.016;23.098;2023-02-13T10:36:46;-21320.09;;;6.74;57.45
7337;BME280;54510;42.016;23.098;2023-02-13T10:39:22;-21321.34;;;6.79;56.79
7337;BME280;54510;42.016;23.098;2023-02-13T10:42:03;-21316.19;;;6.60;57.29
7337;BME280;54510;42.016;23.098;2023-02-13T10:58:04;-21331.94;;;7.17;55.39
7337;BME280;54510;42.016;23.098;2023-02-13T11:03:00;-21337.78;;;7.38;54.19
7337;BME280;54510;42.016;23.098;2023-02-13T11:05:39;-21336.25;;;7.33;54.09
7337;BME280;54510;42.016;23.098;2023-02-13T11:08:27;-21337.22;;;7.36;54.55
7337;BME280;54510;42.016;23.098;2023-02-13T11:10:54;-21343.22;;;7.58;54.41
7337;BME280;54510;42.016;23.098;2023-02-13T11:13:25;-21346.97;;;7.72;53.46
7337;BME280;54510;42.016;23.098;2023-02-13T11:16:00;-21347.97;;;7.75;52.85
7337;BME280;54510;42.016;23.098;2023-02-13T11:18:29;-21351.44;;;7.88;52.27
7337;BME280;54510;42.016;23.098;2023-02-13T11:21:06;-21352.97;;;7.93;52.33
7337;BME280;54510;42.016;23.098;2023-02-13T11:23:43;-21357.00;;;8.08;51.74
7337;BME280;54510;42.016;23.098;2023-02-13T11:26:33;-21359.53;;;8.17;51.94
7337;BME280;54510;42.016;23.098;2023-02-13T11:29:00;-21360.34;;;8.20;51.48
7337;BME280;54510;42.016;23.098;2023-02-13T11:31:36;-21362.84;;;8.29;51.88
7337;BME280;54510;42.016;23.098;2023-02-13T11:36:45;-21361.19;;;8.23;51.12
7337;BME280;54510;42.016;23.098;2023-02-13T11:39:22;-21365.22;;;8.38;51.07
7337;BME280;54510;42.016;23.098;2023-02-13T11:41:50;-21367.72;;;8.47;50.34
7337;BME280;54510;42.016;23.098;2023-02-13T11:44:24;-21373.16;;;8.67;50.27
7337;BME280;54510;42.016;23.098;2023-02-13T11:46:53;-21375.66;;;8.76;49.85
7337;BME280;54510;42.016;23.098;2023-02-13T11:51:48;-21373.44;;;8.68;50.00
7337;BME280;54510;42.016;23.098;2023-02-13T11:54:43;-21376.50;;;8.79;48.89
7337;BME280;54510;42.016;23.098;2023-02-13T11:59:51;-21379.00;;;8.88;47.42
7337;BME280;54510;42.016;23.098;2023-02-13T12:04:42;-21372.47;;;8.64;47.37
7337;BME280;54510;42.016;23.098;2023-02-13T12:07:20;-21368.16;;;8.49;47.95
7337;BME280;54510;42.016;23.098;2023-02-13T12:10:33;-21378.59;;;8.87;47.51
7337;BME280;54510;42.016;23.098;2023-02-13T12:12:38;-21374.41;;;8.71;46.91
7337;BME280;54510;42.016;23.098;2023-02-13T12:15:17;-21379.00;;;8.88;46.47
7337;BME280;54510;42.016;23.098;2023-02-13T12:17:44;-21389.56;;;9.27;45.64
7337;BME280;54510;42.016;23.098;2023-02-13T12:20:15;-21396.81;;;9.53;44.63
7337;BME280;54510;42.016;23.098;2023-02-13T12:25:26;-21404.88;;;9.82;43.20
7337;BME280;54510;42.016;23.098;2023-02-13T12:28:02;-21411.53;;;10.07;43.94
7337;BME280;54510;42.016;23.098;2023-02-13T12:47:18;-21438.75;;;11.06;40.24
7337;BME280;54510;42.016;23.098;2023-02-13T13:03:05;-21439.56;;;11.09;40.09
7337;BME280;54510;42.016;23.098;2023-02-13T13:10:44;-21449.56;;;11.45;39.28
7337;BME280;54510;42.016;23.098;2023-02-13T13:21:03;-21439.28;;;11.08;39.69
7337;BME280;54510;42.016;23.098;2023-02-13T13:28:53;-21464.81;;;12.01;38.84
7337;BME280;54510;42.016;23.098;2023-02-13T13:31:20;-21464.53;;;12.00;38.56
7337;BME280;54510;42.016;23.098;2023-02-13T13:33:48;-21474.22;;;12.36;38.31
7337;BME280;54510;42.016;23.098;2023-02-13T13:45:04;-21497.63;;;13.21;37.09
7337;BME280;54510;42.016;23.098;2023-02-13T13:50:24;-21504.13;;;13.45;36.12
7337;BME280;54510;42.016;23.098;2023-02-13T13:53:20;-21508.84;;;13.62;35.14
7337;BME280;54510;42.016;23.098;2023-02-13T14:03:41;-21517.69;;;13.95;34.52
7337;BME280;54510;42.016;23.098;2023-02-13T14:06:12;-21521.00;;;14.07;33.75
7337;BME280;54510;42.016;23.098;2023-02-13T14:11:05;-21517.13;;;13.93;34.01
7337;BME280;54510;42.016;23.098;2023-02-13T14:13:38;-21517.69;;;13.95;34.09
7337;BME280;54510;42.016;23.098;2023-02-13T14:16:10;-21512.84;;;13.77;33.91
7337;BME280;54510;42.016;23.098;2023-02-13T14:18:36;-21514.94;;;13.84;34.15
7337;BME280;54510;42.016;23.098;2023-02-13T14:21:04;-21504.69;;;13.47;34.39
7337;BME280;54510;42.016;23.098;2023-02-13T14:26:24;-21506.06;;;13.52;34.06
7337;BME280;54510;42.016;23.098;2023-02-13T14:31:36;-21512.72;;;13.76;33.66
7337;BME280;54510;42.016;23.098;2023-02-13T14:34:17;-21512.84;;;13.77;33.83
7337;BME280;54510;42.016;23.098;2023-02-13T14:37:03;-21516.88;;;13.92;33.91
7337;BME280;54510;42.016;23.098;2023-02-13T14:39:33;-21517.97;;;13.96;33.45
7337;BME280;54510;42.016;23.098;2023-02-13T14:42:04;-21517.28;;;13.93;34.61
7337;BME280;54510;42.016;23.098;2023-02-13T14:44:48;-21512.03;;;13.74;33.94
7337;BME280;54510;42.016;23.098;2023-02-13T14:49:50;-21500.81;;;13.33;35.21
7337;BME280;54510;42.016;23.098;2023-02-13T14:52:19;-21507.88;;;13.59;34.26
7337;BME280;54510;42.016;23.098;2023-02-13T14:54:54;-21509.94;;;13.66;33.59
7337;BME280;54510;42.016;23.098;2023-02-13T14:57:26;-21509.94;;;13.66;34.09
7337;BME280;54510;42.016;23.098;2023-02-13T14:59:57;-21505.78;;;13.51;33.53
7337;BME280;54510;42.016;23.098;2023-02-13T15:02:29;-21506.06;;;13.52;33.75
7337;BME280;54510;42.016;23.098;2023-02-13T15:05:04;-21509.13;;;13.63;33.52
7337;BME280;54510;42.016;23.098;2023-02-13T15:07:45;-21510.63;;;13.69;34.10
7337;BME280;54510;42.016;23.098;2023-02-13T15:12:57;-21491.25;;;12.98;34.26
7337;BME280;54510;42.016;23.098;2023-02-13T15:15:25;-21494.31;;;13.09;34.52
7337;BME280;54510;42.016;23.098;2023-02-13T15:18:03;-21490.31;;;12.94;34.46
7337;BME280;54510;42.016;23.098;2023-02-13T15:20:36;-21483.25;;;12.69;34.64
7337;BME280;54510;42.016;23.098;2023-02-13T15:23:04;-21474.09;;;12.35;35.11
7337;BME280;54510;42.016;23.098;2023-02-13T15:25:37;-21473.13;;;12.32;35.63
7337;BME280;54510;42.016;23.098;2023-02-13T15:28:05;-21469.09;;;12.17;36.02
7337;BME280;54510;42.016;23.098;2023-02-13T15:30:36;-21469.53;;;12.18;36.23
7337;BME280;54510;42.016;23.098;2023-02-13T15:33:18;-21464.53;;;12.00;36.53
7337;BME280;54510;42.016;23.098;2023-02-13T15:35:45;-21463.72;;;11.97;36.73
7337;BME280;54510;42.016;23.098;2023-02-13T15:38:24;-21461.63;;;11.90;37.37
7337;BME280;54510;42.016;23.098;2023-02-13T15:40:51;-21458.44;;;11.78;38.39
7337;BME280;54510;42.016;23.098;2023-02-13T15:43:22;-21446.50;;;11.34;39.20
7337;BME280;54510;42.016;23.098;2023-02-13T15:45:50;-21442.63;;;11.20;40.42
7337;BME280;54510;42.016;23.098;2023-02-13T15:48:16;-21435.41;;;10.94;40.68
7337;BME280;54510;42.016;23.098;2023-02-13T15:50:42;-21427.22;;;10.64;41.18
7337;BME280;54510;42.016;23.098;2023-02-13T15:53:14;-21417.09;;;10.27;42.22
7337;BME280;54510;42.016;23.098;2023-02-13T15:55:54;-21397.09;;;9.54;44.44
7337;BME280;54510;42.016;23.098;2023-02-13T15:58:21;-21391.38;;;9.33;44.77
7337;BME280;54510;42.016;23.098;2023-02-13T16:00:50;-21377.06;;;8.81;46.08